Time;durP1;ratioP1;P1;durP2;ratioP2;P2;SDS_P1;SDS_P2;PMS_P1;PMS_P2;Temp;Humidity;BMP_temperature;BMP_pressure;BME280_temperature;BME280_humidity;BME280_pressure;Samples;Min_cycle;Max_cycle;Signal;HPM_P1;HPM_P2
2022/07/06 00:00:55;;;;;;;6.47;2.27;;;;;;;9.35;67.42;99930.81;1675722;84;21101;-62
2022/07/06 00:03:22;;;;;;;4.00;2.10;;;;;;;9.36;67.55;99922.11;1674428;84;21714;-62
2022/07/06 00:05:48;;;;;;;5.47;2.58;;;;;;;9.40;67.72;99931.49;1676602;84;21149;-62
2022/07/06 00:08:15;;;;;;;4.25;2.27;;;;;;;9.42;67.80;99927.08;1669720;84;21899;-62
2022/07/06 00:10:43;;;;;;;6.60;2.00;;;;;;;9.43;67.94;99922.25;1675597;84;21083;-62
2022/07/06 00:13:09;;;;;;;;;;;;;;;9.41;67.98;99922.78;1675599;84;21050;-62
2022/07/06 00:15:36;;;;;;;4.50;1.97;;;;;;;9.37;68.29;99926.41;1675785;83;20203;-62
2022/07/06 00:18:03;;;;;;;3.02;1.77;;;;;;;9.32;68.28;99923.13;1674697;84;21172;-62
2022/07/06 00:20:30;;;;;;;5.92;1.82;;;;;;;9.27;68.33;99922.45;1674197;84;21032;-62
2022/07/06 00:22:57;;;;;;;2.08;1.65;;;;;;;9.22;68.40;99924.41;1673597;84;21568;-62
2022/07/06 00:25:24;;;;;;;5.15;1.57;;;;;;;9.16;68.50;99918.52;1673283;84;21581;-62
2022/07/06 00:27:51;;;;;;;4.55;1.82;;;;;;;9.16;68.66;99922.89;1673678;84;21123;-62
2022/07/06 00:30:18;;;;;;;2.83;1.60;;;;;;;9.12;68.70;99922.13;1674972;84;21860;-62
2022/07/06 00:32:45;;;;;;;;;;;;;;;9.10;68.78;99927.88;1675494;84;21626;-63
2022/07/06 00:35:12;;;;;;;4.03;1.70;;;;;;;9.07;69.05;99926.66;1673979;85;20430;-62
2022/07/06 00:37:38;;;;;;;2.58;1.40;;;;;;;9.04;69.03;99925.48;1673128;84;21073;-62
2022/07/06 00:40:08;;;;;;;3.53;1.63;;;;;;;9.02;69.11;99932.52;1673463;84;20991;-62
2022/07/06 00:42:46;;;;;;;5.75;2.75;;;;;;;9.02;69.18;99925.14;1675258;83;21347;-62
2022/07/06 00:45:16;;;;;;;4.33;1.70;;;;;;;9.02;69.26;99919.50;1672322;84;21422;-62
2022/07/06 00:47:43;;;;;;;5.55;2.00;;;;;;;9.01;69.37;99915.17;1674666;84;21137;-62
2022/07/06 00:50:13;;;;;;;6.00;2.00;;;;;;;9.00;69.51;99920.00;1676273;84;21646;-61
2022/07/06 00:52:46;;;;;;;5.05;2.17;;;;;;;9.00;69.62;99917.40;1673168;84;21237;-62
2022/07/06 00:55:14;;;;;;;4.90;2.33;;;;;;;9.01;69.63;99917.78;1675948;84;21585;-62
2022/07/06 00:57:42;;;;;;;3.02;1.55;;;;;;;9.01;69.63;99916.48;1673742;84;21088;-62
2022/07/06 01:00:14;;;;;;;5.05;2.60;;;;;;;9.02;69.76;99916.89;1673840;84;21174;-61
2022/07/06 01:02:41;;;;;;;7.35;2.08;;;;;;;9.03;69.88;99910.77;1673702;84;21162;-61
2022/07/06 01:05:11;;;;;;;3.98;2.10;;;;;;;9.05;69.96;99907.66;1657827;84;21735;-61
2022/07/06 01:07:41;;;;;;;6.08;2.00;;;;;;;9.07;70.01;99894.10;1656838;84;21171;-61
2022/07/06 01:10:12;;;;;;;3.50;1.87;;;;;;;9.09;70.13;99897.97;1655011;84;21075;-62
2022/07/06 01:12:41;;;;;;;5.87;1.67;;;;;;;9.10;70.35;99894.02;1663207;84;21593;-62
2022/07/06 01:15:13;;;;;;;4.00;1.57;;;;;;;9.06;70.31;99896.33;1656445;84;22200;-62
2022/07/06 01:17:41;;;;;;;9.03;2.08;;;;;;;8.98;70.32;99895.77;1651964;84;22365;-61
2022/07/06 01:20:16;;;;;;;4.30;1.42;;;;;;;8.90;70.32;99891.30;1659814;84;21126;-62
2022/07/06 01:22:45;;;;;;;3.47;1.40;;;;;;;8.85;70.50;99891.91;1663526;84;21110;-61
2022/07/06 01:25:12;;;;;;;2.90;1.20;;;;;;;8.81;70.70;99895.55;1655736;84;21100;-61
2022/07/06 01:27:41;;;;;;;3.02;1.70;;;;;;;8.79;70.81;99894.75;1663422;85;21091;-62
2022/07/06 01:30:15;;;;;;;5.25;1.55;;;;;;;8.78;71.02;99895.67;1659388;84;21554;-62
2022/07/06 01:32:43;;;;;;;2.77;1.77;;;;;;;8.78;71.06;99893.06;1655504;84;21043;-62
2022/07/06 01:35:14;;;;;;;4.17;2.08;;;;;;;8.77;71.19;99891.38;1650699;85;21111;-62
2022/07/06 01:37:42;;;;;;;5.25;1.50;;;;;;;8.78;71.27;99893.06;1648959;85;20997;-61
2022/07/06 01:40:11;;;;;;;4.00;1.40;;;;;;;8.77;71.32;99887.02;1648581;84;21111;-61
2022/07/06 01:42:39;;;;;;;2.33;1.77;;;;;;;8.79;71.45;99894.75;1662671;84;21612;-62
2022/07/06 01:45:09;;;;;;;3.37;1.67;;;;;;;8.81;71.59;99887.74;1653258;84;21111;-61
2022/07/06 01:47:36;;;;;;;5.30;1.50;;;;;;;8.83;71.62;99893.75;1666332;84;21228;-62
2022/07/06 01:50:07;;;;;;;4.80;2.15;;;;;;;8.83;71.61;99893.75;1661636;84;21114;-61
2022/07/06 01:52:34;;;;;;;3.67;1.55;;;;;;;8.82;71.62;99894.63;1651736;84;21059;-61
2022/07/06 01:55:00;;;;;;;3.85;1.45;;;;;;;8.82;71.71;99893.33;1664114;85;21518;-62
2022/07/06 01:57:27;;;;;;;4.78;2.30;;;;;;;8.84;71.85;99890.23;1656205;85;21090;-61
2022/07/06 01:59:54;;;;;;;2.45;1.60;;;;;;;8.88;71.91;99884.02;1658178;84;21464;-61
2022/07/06 02:02:20;;;;;;;4.77;1.90;;;;;;;8.91;72.09;99894.31;1657001;85;21079;-61
2022/07/06 02:04:47;;;;;;;2.53;1.30;;;;;;;8.95;72.15;99895.88;1656658;84;21217;-62
2022/07/06 02:07:14;;;;;;;5.58;3.42;;;;;;;8.99;72.29;99892.27;1655962;84;21170;-61
2022/07/06 02:09:41;;;;;;;6.00;2.17;;;;;;;9.04;72.36;99887.70;1659159;84;21168;-61
2022/07/06 02:12:08;;;;;;;4.33;1.62;;;;;;;9.08;72.53;99889.30;1671393;84;21318;-61
2022/07/06 02:14:35;;;;;;;2.58;1.98;;;;;;;9.14;72.65;99887.77;1656074;84;21611;-61
2022/07/06 02:17:02;;;;;;;2.98;1.35;;;;;;;9.17;72.69;99881.13;1661368;84;21591;-61
2022/07/06 02:19:29;;;;;;;;;;;;;;;9.25;72.85;99882.60;1658667;84;21014;-61
2022/07/06 02:21:55;;;;;;;4.63;2.03;;;;;;;9.32;73.05;99878.83;1659600;84;20157;-62
2022/07/06 02:24:22;;;;;;;3.37;1.70;;;;;;;9.35;72.94;99872.19;1661695;84;21624;-61
2022/07/06 02:26:49;;;;;;;2.87;1.83;;;;;;;9.37;72.80;99884.25;1688400;83;21643;-62
2022/07/06 02:29:15;;;;;;;3.60;1.47;;;;;;;9.37;72.80;99884.25;1661067;84;21758;-62
2022/07/06 02:31:42;;;;;;;3.83;1.30;;;;;;;9.33;72.83;99892.27;1660424;84;21052;-62
2022/07/06 02:34:09;;;;;;;2.20;1.50;;;;;;;9.27;72.81;99891.18;1658336;84;21069;-62
2022/07/06 02:36:35;;;;;;;5.23;2.03;;;;;;;9.22;72.88;99889.23;1656330;84;21027;-61
2022/07/06 02:39:02;;;;;;;3.23;1.67;;;;;;;9.18;73.00;99888.02;1654286;84;21713;-61
2022/07/06 02:41:29;;;;;;;5.62;1.60;;;;;;;9.03;73.13;99865.19;1666214;84;21769;-62
2022/07/06 02:43:56;;;;;;;2.30;1.03;;;;;;;9.29;73.49;99884.16;1656495;84;21070;-61
2022/07/06 02:46:23;;;;;;;3.50;1.35;;;;;;;9.29;73.49;99884.16;1668114;84;21565;-61
2022/07/06 02:48:49;;;;;;;3.00;1.50;;;;;;;9.36;73.51;99893.45;1656916;84;21468;-61
2022/07/06 02:51:16;;;;;;;2.67;1.40;;;;;;;9.44;73.61;99888.78;1652313;84;20987;-61
2022/07/06 02:53:43;;;;;;;3.83;1.30;;;;;;;9.55;73.73;99894.41;1651355;85;22071;-61
2022/07/06 02:56:09;;;;;;;5.70;1.90;;;;;;;9.70;73.85;99892.94;1656846;84;20959;-61
2022/07/06 02:58:36;;;;;;;4.20;1.60;;;;;;;9.84;73.94;99897.58;1658263;84;21009;-62
2022/07/06 03:01:03;;;;;;;6.57;1.47;;;;;;;9.96;73.99;99891.84;1658330;84;22152;-62
2022/07/06 03:03:30;;;;;;;3.27;1.50;;;;;;;10.12;74.01;99885.99;1670080;83;21053;-61
2022/07/06 03:05:56;;;;;;;12.57;1.40;;;;;;;10.28;74.02;99889.67;1700327;83;21084;-62
2022/07/06 03:08:23;;;;;;;8.80;1.70;;;;;;;10.38;73.97;99883.12;1701423;82;21066;-62
2022/07/06 03:10:50;;;;;;;6.33;1.40;;;;;;;10.46;74.03;99888.02;1698770;83;22854;-62
2022/07/06 03:13:17;;;;;;;7.20;2.47;;;;;;;10.57;74.21;99883.16;1699839;82;22285;-61
2022/07/06 03:15:43;;;;;;;9.43;2.02;;;;;;;10.83;74.37;99884.59;1697629;84;21607;-62
2022/07/06 03:18:10;;;;;;;6.20;2.03;;;;;;;11.09;74.32;99883.84;1702458;82;21589;-62
2022/07/06 03:20:37;;;;;;;6.63;1.93;;;;;;;11.24;74.25;99881.83;1699200;83;21038;-62
2022/07/06 03:23:03;;;;;;;3.70;1.50;;;;;;;11.36;74.14;99881.23;1676422;83;21124;-62
2022/07/06 03:25:30;;;;;;;11.83;2.10;;;;;;;11.51;74.25;99880.97;1700121;83;21132;-63
2022/07/06 03:27:57;;;;;;;8.48;1.85;;;;;;;11.78;74.46;99880.05;1699984;83;21789;-62
2022/07/06 03:30:24;;;;;;;6.15;1.62;;;;;;;12.18;74.71;99875.45;1700707;82;21576;-62
2022/07/06 03:32:50;;;;;;;7.85;2.05;;;;;;;12.52;74.31;99868.02;1700821;82;21043;-62
2022/07/06 03:35:17;;;;;;;13.38;1.52;;;;;;;12.63;74.36;99866.14;1701497;82;21062;-62
2022/07/06 03:37:44;;;;;;;10.20;1.87;;;;;;;12.74;74.41;99861.17;1700064;82;21859;-62
2022/07/06 03:40:12;;;;;;;5.80;1.70;;;;;;;12.81;74.45;99863.45;1701620;82;21074;-62
2022/07/06 03:42:39;;;;;;;9.78;1.90;;;;;;;12.90;74.43;99855.08;1701435;82;21703;-63
2022/07/06 03:45:07;;;;;;;3.83;1.35;;;;;;;13.00;74.62;99858.90;1700257;83;21073;-61
2022/07/06 03:47:34;;;;;;;16.17;1.70;;;;;;;13.17;74.74;99852.72;1680176;83;21212;-62
2022/07/06 03:50:01;;;;;;;10.82;2.20;;;;;;;13.33;74.65;99854.03;1678420;84;22072;-63
2022/07/06 03:52:27;;;;;;;3.55;1.90;;;;;;;13.44;74.54;99846.39;1676928;83;21205;-62
2022/07/06 03:54:56;;;;;;;9.08;1.30;;;;;;;13.55;74.58;99849.25;1679760;83;21117;-62
2022/07/06 03:57:23;;;;;;;15.05;1.60;;;;;;;13.72;74.67;99851.37;1680878;83;21218;-62
2022/07/06 03:59:49;;;;;;;10.72;2.10;;;;;;;13.96;74.55;99856.50;1680737;83;21042;-61
2022/07/06 04:02:16;;;;;;;16.95;2.98;;;;;;;14.06;74.36;99851.09;1681024;84;21908;-62
2022/07/06 04:04:43;;;;;;;12.73;1.90;;;;;;;14.18;74.25;99852.61;1672090;84;20983;-62
2022/07/06 04:07:10;;;;;;;4.27;1.20;;;;;;;14.47;74.81;99852.98;1670115;84;21634;-62
2022/07/06 04:09:37;;;;;;;11.57;1.93;;;;;;;14.84;74.83;99859.92;1670230;84;21378;-62
2022/07/06 04:12:04;;;;;;;6.90;1.50;;;;;;;15.08;74.58;99866.75;1666576;84;21850;-63
2022/07/06 04:14:31;;;;;;;4.95;1.20;;;;;;;15.24;74.30;99861.36;1663635;84;22111;-62
2022/07/06 04:16:58;;;;;;;7.20;1.27;;;;;;;15.37;74.00;99854.34;1664916;84;21086;-61
2022/07/06 04:19:25;;;;;;;10.88;1.92;;;;;;;15.43;73.83;99851.34;1666737;84;21081;-62
2022/07/06 04:21:51;;;;;;;5.15;2.22;;;;;;;15.47;73.79;99845.87;1666576;84;22246;-61
2022/07/06 04:24:18;;;;;;;30.20;3.30;;;;;;;15.53;73.67;99848.09;1668494;84;21234;-62
2022/07/06 04:26:45;;;;;;;25.97;3.58;;;;;;;15.65;74.01;99845.47;1669360;84;21183;-63
2022/07/06 04:29:11;;;;;;;65.60;6.90;;;;;;;16.76;75.84;99841.45;1668090;84;22553;-63
2022/07/06 04:31:38;;;;;;;51.92;6.12;;;;;;;18.50;74.41;99837.30;1643561;85;21111;-62
2022/07/06 04:34:05;;;;;;;24.98;3.87;;;;;;;19.02;72.90;99835.00;1667716;84;21066;-63
2022/07/06 04:36:32;;;;;;;48.15;5.83;;;;;;;19.53;73.38;99832.19;1692144;84;21627;-63
2022/07/06 04:38:58;;;;;;;8.43;1.70;;;;;;;20.87;73.48;99828.30;1675022;84;22427;-64
2022/07/06 04:41:25;;;;;;;7.28;1.87;;;;;;;22.36;72.29;99828.83;1674123;84;21773;-64
2022/07/06 04:43:52;;;;;;;;;;;;;;;23.59;71.48;99832.88;1677957;84;21091;-65
2022/07/06 04:46:20;;;;;;;48.20;5.08;;;;;;;25.08;71.71;99829.08;1673855;84;20344;-64
2022/07/06 04:48:47;;;;;;;59.83;8.38;;;;;;;26.29;70.89;99828.45;1672681;84;21025;-64
2022/07/06 04:51:14;;;;;;;28.75;3.17;;;;;;;27.19;69.94;99828.09;1674168;84;22316;-64
2022/07/06 04:53:41;;;;;;;36.55;5.60;;;;;;;27.97;68.97;99827.51;1673852;84;21077;-66
2022/07/06 04:56:08;;;;;;;12.95;1.80;;;;;;;28.50;67.66;99821.59;1675880;84;21589;-65
2022/07/06 04:58:34;;;;;;;5.85;1.37;;;;;;;29.06;67.20;99819.20;1675708;84;21632;-64
2022/07/06 05:01:01;;;;;;;3.87;1.42;;;;;;;29.19;65.58;99816.66;1672878;84;21663;-65
2022/07/06 05:03:28;;;;;;;2.62;1.30;;;;;;;29.82;65.47;99809.28;1670534;84;21115;-64
2022/07/06 05:05:55;;;;;;;7.42;2.05;;;;;;;30.24;63.32;99810.22;1674264;84;21087;-65
2022/07/06 05:08:22;;;;;;;17.07;2.05;;;;;;;30.73;63.34;99811.92;1673953;84;21158;-65
2022/07/06 05:10:49;;;;;;;16.95;1.92;;;;;;;31.03;61.05;99803.52;1675357;84;21136;-65
2022/07/06 05:13:16;;;;;;;9.48;2.02;;;;;;;30.85;60.34;99803.59;1674709;84;21055;-64
2022/07/06 05:15:43;;;;;;;12.03;1.70;;;;;;;30.81;59.43;99796.95;1672198;84;21230;-65
2022/07/06 05:18:09;;;;;;;4.72;1.30;;;;;;;30.99;58.11;99799.89;1671021;84;21564;-64
2022/07/06 05:20:36;;;;;;;8.70;1.15;;;;;;;31.21;57.66;99794.34;1672316;84;21107;-63
2022/07/06 05:23:03;;;;;;;11.20;1.70;;;;;;;31.23;55.89;99788.23;1670635;84;21104;-64
2022/07/06 05:25:31;;;;;;;3.58;0.93;;;;;;;30.89;55.45;99792.73;1666962;84;21208;-64
2022/07/06 05:27:58;;;;;;;32.85;4.58;;;;;;;31.26;54.72;99791.02;1669198;84;21507;-63
2022/07/06 05:30:25;;;;;;;10.55;2.17;;;;;;;31.59;54.37;99793.77;1665878;84;21034;-64
2022/07/06 05:32:52;;;;;;;5.55;1.60;;;;;;;31.18;50.08;99786.66;1667828;84;21592;-65
2022/07/06 05:35:19;;;;;;;34.70;5.62;;;;;;;30.28;51.31;99794.00;1668707;84;21126;-64
2022/07/06 05:37:46;;;;;;;23.32;3.50;;;;;;;30.26;51.46;99790.14;1668321;84;21146;-64
2022/07/06 05:40:12;;;;;;;5.05;1.12;;;;;;;30.64;51.39;99786.16;1670046;84;21070;-64
2022/07/06 05:42:39;;;;;;;9.70;1.98;;;;;;;31.19;50.23;99782.92;1670321;84;21121;-64
2022/07/06 05:45:07;;;;;;;6.92;1.65;;;;;;;31.08;49.81;99776.78;1666633;84;21585;-63
2022/07/06 05:50:19;;;;;;;5.50;1.35;;;;;;;30.35;47.88;99775.98;1666518;84;26751;-63
2022/07/06 05:52:59;;;;;;;8.53;1.75;;;;;;;30.31;47.88;99774.73;1669439;84;21478;-63
2022/07/06 05:55:26;;;;;;;4.40;1.10;;;;;;;30.37;46.94;99769.89;1665843;84;21096;-63
2022/07/06 05:57:56;;;;;;;4.10;1.10;;;;;;;29.86;45.17;99766.16;1668119;84;21034;-66
2022/07/06 06:00:24;;;;;;;3.60;0.95;;;;;;;29.70;46.28;99759.20;1667846;84;21006;-64
2022/07/06 06:02:53;;;;;;;2.72;1.00;;;;;;;29.80;45.50;99758.84;1668210;84;21072;-64
2022/07/06 06:05:20;;;;;;;1.95;0.80;;;;;;;29.04;43.48;99764.80;1666283;84;21940;-63
2022/07/06 06:07:50;;;;;;;4.03;1.20;;;;;;;27.09;42.74;99770.69;1670269;84;21616;-63
2022/07/06 06:10:19;;;;;;;5.22;1.17;;;;;;;27.09;42.74;99770.69;1675172;84;20991;-63
2022/07/06 06:12:46;;;;;;;3.45;1.05;;;;;;;26.21;43.93;99765.58;1674826;84;21812;-63
2022/07/06 06:15:13;;;;;;;4.20;0.90;;;;;;;26.01;44.15;99764.63;1673793;84;21055;-63
2022/07/06 06:17:40;;;;;;;8.43;1.65;;;;;;;26.04;43.26;99758.94;1674848;84;21452;-62
2022/07/06 06:20:11;;;;;;;9.25;1.37;;;;;;;25.37;43.28;99761.00;1671939;84;21111;-62
2022/07/06 06:22:51;;;;;;;11.55;1.70;;;;;;;25.22;44.22;99768.34;1674187;84;21019;-62
2022/07/06 06:25:23;;;;;;;4.70;1.30;;;;;;;26.17;44.63;99765.61;1674325;84;21136;-64
2022/07/06 06:27:52;;;;;;;2.10;0.80;;;;;;;26.89;43.93;99752.91;1671983;84;21185;-64
2022/07/06 06:30:20;;;;;;;2.95;0.90;;;;;;;27.24;44.32;99758.71;1672306;84;21182;-63
2022/07/06 06:32:47;;;;;;;8.00;1.35;;;;;;;26.99;42.67;99756.17;1676090;84;21086;-63
2022/07/06 06:35:14;;;;;;;45.23;35.40;;;;;;;26.75;43.70;99749.66;1675156;84;21117;-62
2022/07/06 06:37:41;;;;;;;12.00;5.83;;;;;;;26.42;43.14;99756.47;1673556;84;21022;-62
2022/07/06 06:40:11;;;;;;;10.43;1.70;;;;;;;25.80;43.22;99748.28;1670298;84;21085;-63
2022/07/06 06:42:39;;;;;;;3.45;1.00;;;;;;;25.39;43.78;99738.96;1675264;84;21900;-65
2022/07/06 06:45:07;;;;;;;3.55;0.80;;;;;;;25.28;43.70;99745.98;1674653;84;21033;-64
2022/07/06 06:47:34;;;;;;;44.63;4.95;;;;;;;25.26;43.96;99747.97;1674968;84;21105;-64
2022/07/06 06:50:01;;;;;;;5.75;1.15;;;;;;;25.05;43.76;99757.28;1671618;84;21128;-64
2022/07/06 06:52:28;;;;;;;15.30;1.50;;;;;;;24.55;43.82;99755.49;1672585;83;21084;-65
2022/07/06 06:54:54;;;;;;;;;;;;;;;24.14;43.91;99741.94;1678235;84;21464;-64
2022/07/06 06:57:21;;;;;;;;;;;;;;;23.57;43.79;99757.57;1677864;84;20760;-64
2022/07/06 06:59:47;;;;;;;;;;;;;;;22.97;43.62;99748.41;1675488;84;20176;-65
2022/07/06 07:02:14;;;;;;;7.55;1.10;;;;;;;22.55;44.32;99754.25;1673927;84;20195;-64
2022/07/06 07:04:40;;;;;;;36.48;4.65;;;;;;;22.24;44.03;99756.87;1673885;84;21706;-64
2022/07/06 07:07:07;;;;;;;18.10;3.25;;;;;;;22.17;44.57;99753.07;1671617;84;22380;-64
2022/07/06 07:09:34;;;;;;;6.97;1.42;;;;;;;22.69;44.84;99752.91;1673039;84;21200;-64
2022/07/06 07:12:01;;;;;;;2.80;1.15;;;;;;;23.44;45.41;99750.83;1673665;85;21026;-64
2022/07/06 07:14:27;;;;;;;;;;;;;;;24.28;45.20;99744.03;1677050;84;21099;-64
2022/07/06 07:16:54;;;;;;;3.50;1.05;;;;;;;24.99;45.05;99740.59;1673670;84;20227;-65
2022/07/06 07:19:21;;;;;;;;;;;;;;;25.02;44.93;99734.91;1676506;84;21447;-64
2022/07/06 07:21:47;;;;;;;4.90;1.17;;;;;;;24.38;43.98;99739.06;1675323;84;20525;-65
2022/07/06 07:24:14;;;;;;;;;;;;;;;23.39;44.40;99745.12;1676311;84;21635;-61
2022/07/06 07:26:40;;;;;;;;;;;;;;;23.19;45.14;99746.26;1676528;84;20642;-63
2022/07/06 07:29:07;;;;;;;6.08;1.37;;;;;;;23.33;44.65;99744.41;1675358;84;20543;-62
2022/07/06 07:31:34;;;;;;;7.08;1.12;;;;;;;22.71;44.29;99750.08;1672841;84;21189;-64
2022/07/06 07:34:01;;;;;;;3.30;0.90;;;;;;;22.10;44.76;99749.67;1674780;84;20979;-61
2022/07/06 07:36:27;;;;;;;;;;;;;;;22.01;45.23;99753.18;1676667;84;21189;-63
2022/07/06 07:38:54;;;;;;;5.37;0.75;;;;;;;21.84;45.52;99749.45;1674777;84;20521;-62
2022/07/06 07:41:21;;;;;;;;;;;;;;;22.09;46.05;99747.97;1675849;84;21245;-63
2022/07/06 07:43:47;;;;;;;5.50;1.60;;;;;;;21.94;45.27;99746.78;1673574;84;22737;-63
2022/07/06 07:46:14;;;;;;;6.05;1.20;;;;;;;21.70;45.83;99738.45;1671908;84;26752;-62
2022/07/06 07:48:41;;;;;;;5.70;1.10;;;;;;;21.77;45.81;99744.88;1675730;84;21177;-63
2022/07/06 07:51:08;;;;;;;;;;;;;;;21.50;45.49;99759.73;1673937;84;21087;-62
2022/07/06 07:53:35;;;;;;;16.95;1.72;;;;;;;20.92;45.75;99759.70;1671477;84;20619;-62
2022/07/06 07:56:01;;;;;;;;;;;;;;;20.58;45.92;99753.42;1677223;84;22348;-63
2022/07/06 07:58:28;;;;;;;9.05;1.45;;;;;;;20.41;46.23;99765.98;1672531;84;21215;-63
2022/07/06 08:00:55;;;;;;;6.58;1.52;;;;;;;20.55;46.90;99753.70;1674628;84;21102;-63
2022/07/06 08:03:22;;;;;;;12.28;1.92;;;;;;;20.86;47.15;99753.12;1674349;84;21028;-64
2022/07/06 08:05:50;;;;;;;;;;;;;;;21.09;46.69;99764.34;1674740;84;21710;-63
2022/07/06 08:08:18;;;;;;;5.00;1.07;;;;;;;21.01;46.77;99764.20;1669388;84;21167;-63
2022/07/06 08:10:45;;;;;;;14.83;1.50;;;;;;;20.93;46.73;99770.19;1647636;84;21736;-63
2022/07/06 08:13:14;;;;;;;5.53;0.70;;;;;;;20.62;46.49;99772.09;1668300;84;21063;-63
2022/07/06 08:15:42;;;;;;;4.20;0.62;;;;;;;19.57;46.86;99797.36;1667084;84;21048;-63
2022/07/06 08:18:12;;;;;;;6.25;0.60;;;;;;;18.55;47.12;99811.83;1668383;84;21695;-63
2022/07/06 08:20:40;;;;;;;2.20;0.78;;;;;;;17.74;47.79;99801.74;1669262;84;21738;-64
2022/07/06 08:23:07;;;;;;;4.12;0.90;;;;;;;17.26;48.70;99811.54;1673699;84;21177;-63
2022/07/06 08:25:34;;;;;;;2.15;0.65;;;;;;;16.60;50.86;99821.04;1669060;84;22343;-62
2022/07/06 08:28:01;;;;;;;2.72;0.50;;;;;;;16.17;50.88;99817.45;1668879;84;21019;-62
2022/07/06 08:30:31;;;;;;;1.27;0.50;;;;;;;15.91;51.16;99826.28;1668643;84;21093;-63
2022/07/06 08:32:57;;;;;;;6.03;1.40;;;;;;;15.79;51.35;99823.53;1668076;84;21246;-63
2022/07/06 08:35:24;;;;;;;2.42;0.60;;;;;;;15.77;51.61;99830.71;1666074;84;21101;-64
2022/07/06 08:37:51;;;;;;;1.42;0.78;;;;;;;15.82;52.17;99832.56;1670547;83;20979;-63
2022/07/06 08:40:18;;;;;;;1.12;0.72;;;;;;;15.89;52.18;99824.61;1671829;84;22044;-63
2022/07/06 08:42:48;;;;;;;3.75;1.00;;;;;;;16.06;53.05;99827.89;1671862;84;21604;-63
2022/07/06 08:45:16;;;;;;;4.20;0.70;;;;;;;16.19;53.26;99822.60;1670417;84;21128;-64
2022/07/06 08:47:49;;;;;;;2.35;1.12;;;;;;;16.33;53.37;99814.62;1665845;84;20927;-62
2022/07/06 08:50:16;;;;;;;10.32;1.22;;;;;;;16.73;53.61;99813.12;1667736;84;21200;-62
2022/07/06 08:52:43;;;;;;;7.00;0.68;;;;;;;17.10;53.76;99812.64;1663378;84;21027;-63
2022/07/06 08:55:12;;;;;;;;;;;;;;;17.55;54.16;99816.80;1667801;84;21618;-64
2022/07/06 08:57:42;;;;;;;5.85;0.90;;;;;;;18.09;54.34;99807.02;1665624;84;21958;-65
2022/07/06 09:00:13;;;;;;;3.08;0.68;;;;;;;18.45;53.91;99807.73;1662333;84;20956;-66
2022/07/06 09:02:42;;;;;;;3.80;0.90;;;;;;;18.71;53.98;99799.56;1661398;84;21077;-65
2022/07/06 09:05:14;;;;;;;3.85;0.72;;;;;;;18.58;53.65;99804.97;1660078;84;21116;-65
2022/07/06 09:07:44;;;;;;;3.92;1.00;;;;;;;18.83;54.10;99799.92;1640449;85;21125;-60
2022/07/06 09:10:12;;;;;;;6.78;1.17;;;;;;;19.12;54.09;99799.36;1614609;86;21176;-63
2022/07/06 09:12:39;;;;;;;3.62;1.05;;;;;;;19.30;53.96;99788.59;1634642;86;21852;-63
2022/07/06 09:15:10;;;;;;;6.42;1.17;;;;;;;19.26;53.95;99792.45;1631038;84;21117;-64
2022/07/06 09:17:42;;;;;;;3.75;1.00;;;;;;;19.55;54.23;99799.78;1634700;86;21162;-63
2022/07/06 09:20:12;;;;;;;3.40;0.85;;;;;;;19.51;53.73;99801.02;1638109;84;21108;-61
2022/07/06 09:22:42;;;;;;;5.58;0.80;;;;;;;19.60;54.24;99792.30;1614266;86;22072;-61
2022/07/06 09:25:16;;;;;;;3.17;0.80;;;;;;;19.53;53.80;99793.30;1634077;86;21080;-63
2022/07/06 09:27:47;;;;;;;8.18;1.00;;;;;;;19.54;54.09;99792.81;1633710;86;21160;-63
2022/07/06 09:30:15;;;;;;;4.20;0.70;;;;;;;19.78;54.13;99796.09;1635568;86;21182;-63
2022/07/06 09:32:46;;;;;;;8.90;1.67;;;;;;;19.87;53.73;99800.59;1633836;84;21597;-62
2022/07/06 09:35:38;;;;;;;3.12;0.90;;;;;;;19.66;53.67;99802.40;1635480;86;21088;-63
2022/07/06 09:38:09;;;;;;;3.90;1.32;;;;;;;19.51;53.93;99802.34;1650828;85;21093;-63
2022/07/06 09:40:42;;;;;;;2.35;0.82;;;;;;;19.77;54.57;99799.69;1647500;85;21124;-65
2022/07/06 09:43:18;;;;;;;4.45;0.80;;;;;;;19.94;53.91;99784.17;1652628;85;21664;-65
2022/07/06 09:45:51;;;;;;;3.80;0.97;;;;;;;20.10;54.42;99783.22;1648777;85;21535;-64
2022/07/06 09:48:30;;;;;;;2.70;0.72;;;;;;;20.54;54.33;99787.84;1648322;85;21337;-64
2022/07/06 09:51:02;;;;;;;9.23;1.27;;;;;;;20.04;53.03;99804.95;1651279;85;21659;-63
2022/07/06 09:53:29;;;;;;;8.83;0.93;;;;;;;18.65;52.48;99818.53;1664502;84;21161;-63
2022/07/06 10:01:29;;;;;;;5.25;0.62;;;;;;;16.18;55.74;99838.89;1855284;75;22802;-63
2022/07/06 10:03:56;;;;;;;2.03;0.80;;;;;;;16.04;57.17;99848.21;1817053;77;21086;-63
2022/07/06 10:06:26;;;;;;;3.55;0.85;;;;;;;15.84;56.55;99854.83;1819660;77;22325;-62
2022/07/06 10:08:56;;;;;;;2.67;0.70;;;;;;;15.76;56.47;99859.75;1830992;77;21000;-63
2022/07/06 10:11:24;;;;;;;3.90;0.80;;;;;;;15.61;57.73;99853.70;1824459;76;21024;-63
2022/07/06 10:13:55;;;;;;;5.60;0.93;;;;;;;15.65;57.46;99842.00;1831921;76;21535;-63
2022/07/06 10:16:24;;;;;;;6.50;1.10;;;;;;;15.92;58.14;99851.69;1828823;77;20949;-64
2022/07/06 10:18:55;;;;;;;1.98;0.65;;;;;;;16.08;58.38;99849.70;1816923;76;21925;-63
2022/07/06 10:21:22;;;;;;;1.95;0.80;;;;;;;16.28;58.54;99849.17;1819874;77;21075;-62
2022/07/06 10:23:54;;;;;;;1.85;0.93;;;;;;;16.54;58.70;99843.88;1824404;77;21043;-64
2022/07/06 10:26:23;;;;;;;1.87;0.70;;;;;;;16.77;58.78;99847.08;1830721;75;21858;-64
2022/07/06 10:28:52;;;;;;;3.50;0.88;;;;;;;17.00;59.27;99843.30;1832438;77;21194;-62
2022/07/06 10:31:20;;;;;;;4.20;0.93;;;;;;;17.42;59.58;99839.78;1819927;77;21169;-62
2022/07/06 10:33:48;;;;;;;2.75;1.00;;;;;;;17.88;59.48;99839.03;1825209;77;21079;-60
2022/07/06 10:36:16;;;;;;;1.37;0.80;;;;;;;18.22;59.68;99832.48;1822416;76;21521;-61
2022/07/06 10:38:48;;;;;;;2.37;0.95;;;;;;;18.62;59.55;99835.48;1822820;77;21027;-62
2022/07/06 10:41:21;;;;;;;3.37;0.98;;;;;;;18.92;59.70;99834.89;1818079;76;21049;-62
2022/07/06 10:43:51;;;;;;;3.92;1.10;;;;;;;19.20;59.84;99830.84;1822315;76;21075;-61
2022/07/06 10:46:20;;;;;;;3.52;0.85;;;;;;;19.47;60.01;99831.38;1798385;77;21042;-62
2022/07/06 10:48:49;;;;;;;3.65;1.12;;;;;;;19.69;59.87;99833.95;1829239;76;21540;-62
2022/07/06 10:51:32;;;;;;;3.15;0.93;;;;;;;19.89;60.01;99830.47;1813584;76;21639;-63
2022/07/06 10:54:07;;;;;;;3.10;0.80;;;;;;;20.03;59.98;99832.44;1830113;76;21081;-63
2022/07/06 10:56:48;;;;;;;2.30;0.98;;;;;;;20.21;60.07;99824.22;1827733;76;21775;-64
2022/07/06 10:59:39;;;;;;;1.40;0.70;;;;;;;20.46;60.13;99824.77;1828682;76;21487;-63
2022/07/06 11:02:23;;;;;;;1.98;0.90;;;;;;;20.52;59.66;99824.22;1683144;81;21104;-62
2022/07/06 11:04:56;;;;;;;4.65;0.70;;;;;;;20.26;59.20;99822.02;1660435;83;21064;-62
2022/07/06 11:07:26;;;;;;;4.40;1.10;;;;;;;20.15;59.66;99810.17;1697126;82;21158;-64
2022/07/06 11:09:58;;;;;;;3.50;1.12;;;;;;;20.19;59.50;99815.55;1670403;82;21031;-62
2022/07/06 11:12:26;;;;;;;2.67;0.80;;;;;;;20.18;59.58;99809.91;1759113;79;21144;-62
2022/07/06 11:14:54;;;;;;;2.95;0.90;;;;;;;20.20;58.91;99798.70;1721035;81;20990;-63
2022/07/06 11:17:22;;;;;;;2.70;0.72;;;;;;;20.23;59.26;99798.43;1736406;78;21104;-63
2022/07/06 11:20:11;;;;;;;2.83;0.95;;;;;;;20.19;58.57;99795.67;1756756;78;21132;-61
2022/07/06 11:22:38;;;;;;;2.70;0.98;;;;;;;19.84;58.99;99799.54;1757897;79;21539;-62
2022/07/06 11:25:06;;;;;;;2.77;0.57;;;;;;;19.92;59.07;99793.59;1744942;78;21058;-63
2022/07/06 11:27:35;;;;;;;4.25;0.98;;;;;;;19.95;59.12;99791.17;1755751;78;21041;-61
2022/07/06 11:30:02;;;;;;;3.08;0.80;;;;;;;20.04;59.35;99799.66;1731385;78;21488;-62
2022/07/06 11:32:29;;;;;;;1.87;0.78;;;;;;;20.10;59.33;99793.33;1715342;82;21306;-63
2022/07/06 11:34:56;;;;;;;;;;;;;;;20.33;59.61;99791.37;1722061;81;21713;-65
2022/07/06 11:37:25;;;;;;;2.72;0.65;;;;;;;20.76;59.76;99788.95;1745644;79;20446;-63
2022/07/06 11:39:53;;;;;;;1.50;0.68;;;;;;;21.08;59.56;99786.55;1747730;78;21699;-64
2022/07/06 11:42:20;;;;;;;2.00;0.72;;;;;;;21.22;59.03;99786.13;1753589;79;20939;-63
2022/07/06 11:46:34;;;;;;;1.77;0.53;;;;;;;21.20;58.29;99784.59;1838258;76;23286;-63
2022/07/06 11:49:07;;;;;;;16.32;2.25;;;;;;;20.87;58.05;99785.84;1817501;78;21056;-62
2022/07/06 11:51:42;;;;;;;2.52;1.00;;;;;;;20.86;58.70;99784.14;1813079;77;21115;-62
2022/07/06 11:54:22;;;;;;;2.80;0.70;;;;;;;21.16;58.86;99788.52;1816034;78;21066;-63